Donostia-San Sebastian, Spain
Current Conditions -  °F | °C
As of 1:00 PM on Sunday 21 Dec 2014 (Local Time) from LESO Reporting Station
Few Clouds Few Clouds  
Wind Chill: 52°   Ceiling: Unl
Heat Index: 52°   Visibility: 6mi
Dew Point: 45°   Wind: 5mph
Humidity: 76%   Direction: 10°N
Pressure: 30.59"   Gusts: NA
Location:  43.32°N, 1.98°W
Report Text: LESO 211200Z 01004KT 330V040 9999 FEW037 11/07 Q1036
Loading
Personal Weather Stations






























Interactive Weather Map New forecast layout! Learn more

10-Day Weather Forecast

Advertisements
Track Severe Weather on mobile